createdAt,value
2022-10-01T00:01:25.409Z,18.62
2022-10-01T00:03:52.251Z,18.63
2022-10-01T00:06:20.958Z,18.63
2022-10-01T00:08:49.555Z,18.65
2022-10-01T00:11:25.324Z,18.66
2022-10-01T00:13:54.124Z,18.69
2022-10-01T00:16:24.022Z,18.17
2022-10-01T00:18:52.487Z,17.68
2022-10-01T00:21:22.020Z,17.93
2022-10-01T00:23:54.475Z,18.08
2022-10-01T00:26:24.952Z,18.07
2022-10-01T00:29:01.152Z,18.07
2022-10-01T00:31:29.061Z,18.14
2022-10-01T00:33:57.844Z,18.23
2022-10-01T00:36:25.539Z,17.68
2022-10-01T00:38:52.312Z,17.84
2022-10-01T00:41:19.391Z,18.04
2022-10-01T00:43:50.275Z,18.13
2022-10-01T00:46:41.418Z,18.05
2022-10-01T00:49:18.158Z,18.04
2022-10-01T00:51:49.946Z,18.00
2022-10-01T00:54:22.795Z,18.02
2022-10-01T00:56:55.598Z,18.06
2022-10-01T00:59:22.627Z,18.14
2022-10-01T01:01:49.582Z,18.22
2022-10-01T01:04:16.710Z,18.18
2022-10-01T01:06:53.674Z,18.16
2022-10-01T01:09:21.593Z,18.11
2022-10-01T01:12:02.996Z,18.17
2022-10-01T01:14:41.937Z,18.23
2022-10-01T01:17:23.072Z,17.99
2022-10-01T01:20:25.641Z,17.81
2022-10-01T01:23:20.803Z,17.87
2022-10-01T01:26:10.738Z,17.98
2022-10-01T01:28:44.463Z,18.07
2022-10-01T01:31:16.421Z,18.06
2022-10-01T01:33:48.172Z,17.53
2022-10-01T01:36:19.226Z,17.69
2022-10-01T01:38:53.840Z,17.64
2022-10-01T01:41:24.335Z,17.79
2022-10-01T01:43:54.654Z,17.56
2022-10-01T01:46:22.139Z,17.61
2022-10-01T01:48:51.884Z,17.49
2022-10-01T01:51:25.557Z,17.17
2022-10-01T01:53:52.423Z,17.15
2022-10-01T01:56:19.167Z,17.28
2022-10-01T01:58:46.605Z,17.13
2022-10-01T02:01:36.808Z,17.32
2022-10-01T02:04:12.610Z,17.43
2022-10-01T02:06:45.473Z,17.49
2022-10-01T02:09:25.313Z,17.50
2022-10-01T02:12:00.840Z,17.58
2022-10-01T02:14:39.461Z,17.49
2022-10-01T02:17:23.753Z,17.20
2022-10-01T02:20:02.514Z,16.57
2022-10-01T02:22:42.469Z,16.60
2022-10-01T02:25:11.563Z,16.85
2022-10-01T02:27:47.007Z,17.00
2022-10-01T02:30:14.576Z,17.12
2022-10-01T02:32:44.305Z,17.11
2022-10-01T02:35:13.949Z,17.18
2022-10-01T02:37:43.356Z,17.25
2022-10-01T02:40:14.400Z,17.34
2022-10-01T02:42:43.800Z,17.36
2022-10-01T02:45:12.303Z,17.42
2022-10-01T02:47:47.501Z,17.39
2022-10-01T02:50:14.796Z,17.39
2022-10-01T02:53:03.056Z,17.36
2022-10-01T02:55:33.384Z,17.38
2022-10-01T02:58:00.165Z,17.37
2022-10-01T03:00:27.248Z,17.24
2022-10-01T03:02:54.724Z,17.09
2022-10-01T03:05:21.869Z,17.12
2022-10-01T03:07:48.995Z,17.12
2022-10-01T03:10:16.911Z,17.14
2022-10-01T03:12:44.883Z,17.11
2022-10-01T03:15:13.755Z,16.79
2022-10-01T03:17:40.663Z,16.92
2022-10-01T03:20:08.427Z,17.01
2022-10-01T03:22:35.425Z,17.05
2022-10-01T03:25:02.221Z,17.06
2022-10-01T03:27:28.973Z,17.10
2022-10-01T03:29:55.924Z,17.13
2022-10-01T03:32:22.796Z,17.17
2022-10-01T03:34:49.627Z,17.11
2022-10-01T03:37:16.532Z,16.95
2022-10-01T03:39:43.395Z,16.98
2022-10-01T03:42:10.246Z,16.94
2022-10-01T03:44:37.118Z,16.98
2022-10-01T03:47:03.929Z,16.96
2022-10-01T03:49:30.764Z,16.94
2022-10-01T03:51:57.637Z,16.86
2022-10-01T03:54:24.461Z,16.81
2022-10-01T03:56:51.308Z,16.59
2022-10-01T03:59:18.499Z,16.79
2022-10-01T04:01:45.415Z,16.81
2022-10-01T04:04:12.363Z,17.06
2022-10-01T04:06:39.237Z,17.26
2022-10-01T04:09:06.178Z,17.48
2022-10-01T04:11:33.107Z,17.63
2022-10-01T04:14:00.130Z,17.82
2022-10-01T04:16:27.056Z,17.98
2022-10-01T04:18:54.063Z,18.09
2022-10-01T04:21:21.297Z,18.14
2022-10-01T04:23:48.097Z,18.07
2022-10-01T04:26:14.853Z,18.23
2022-10-01T04:28:41.698Z,18.42
2022-10-01T04:31:08.537Z,18.34
2022-10-01T04:33:35.393Z,18.23
2022-10-01T04:36:02.284Z,18.26
2022-10-01T04:38:29.071Z,18.29
2022-10-01T04:40:55.860Z,18.44
2022-10-01T04:43:22.777Z,18.73
2022-10-01T04:45:52.294Z,19.06
2022-10-01T04:48:19.186Z,19.29
2022-10-01T04:50:46.093Z,19.51
2022-10-01T04:53:13.106Z,19.56
2022-10-01T04:55:39.877Z,19.63
2022-10-01T04:58:06.698Z,19.83
2022-10-01T05:00:33.962Z,20.05
2022-10-01T05:03:00.761Z,20.28
2022-10-01T05:05:27.925Z,20.51
2022-10-01T05:07:55.413Z,20.75
2022-10-01T05:10:23.518Z,20.71
2022-10-01T05:12:50.759Z,19.97
2022-10-01T05:15:18.716Z,19.52
2022-10-01T05:17:47.205Z,19.80
2022-10-01T05:20:22.594Z,20.21
2022-10-01T05:22:49.735Z,20.55
2022-10-01T05:25:17.653Z,20.41
2022-10-01T05:27:44.654Z,19.43
2022-10-01T05:30:13.742Z,19.23
2022-10-01T05:32:40.797Z,19.45
2022-10-01T05:35:10.831Z,19.59
2022-10-01T05:37:39.978Z,19.98
2022-10-01T05:40:07.101Z,20.42
2022-10-01T05:42:33.956Z,20.84
2022-10-01T05:45:00.703Z,20.98
2022-10-01T05:47:27.460Z,20.96
2022-10-01T05:52:20.870Z,21.40
2022-10-01T05:54:47.615Z,21.27
2022-10-01T05:57:14.464Z,21.30
2022-10-01T05:59:41.268Z,21.52
2022-10-01T06:02:10.204Z,21.68
2022-10-01T06:04:41.010Z,21.98
2022-10-01T06:07:08.117Z,22.20
2022-10-01T06:09:34.927Z,22.38
2022-10-01T06:12:02.132Z,22.50
2022-10-01T06:14:28.874Z,22.40
2022-10-01T06:16:55.705Z,22.57
2022-10-01T06:19:22.557Z,22.61
2022-10-01T06:21:49.497Z,22.85
2022-10-01T06:24:16.230Z,22.73
2022-10-01T06:26:43.074Z,22.48
2022-10-01T06:29:10.783Z,22.44
2022-10-01T06:31:38.037Z,22.26
2022-10-01T06:34:05.692Z,22.23
2022-10-01T06:36:34.090Z,22.20
2022-10-01T06:39:00.815Z,22.35
2022-10-01T06:41:27.689Z,22.23
2022-10-01T06:43:54.457Z,22.08
2022-10-01T06:46:21.289Z,22.19
2022-10-01T06:48:48.262Z,22.55
2022-10-01T06:51:15.066Z,22.96
2022-10-01T06:53:41.882Z,23.29
2022-10-01T06:56:08.814Z,23.37
2022-10-01T06:58:35.556Z,23.43
2022-10-01T07:01:03.427Z,23.48
2022-10-01T07:03:33.080Z,23.75
2022-10-01T07:06:05.388Z,23.56
2022-10-01T07:08:32.143Z,23.47
2022-10-01T07:11:03.171Z,23.57
2022-10-01T07:13:30.241Z,23.48
2022-10-01T07:15:57.252Z,23.49
2022-10-01T07:18:24.209Z,23.43
2022-10-01T07:20:51.175Z,23.21
2022-10-01T07:23:17.986Z,23.47
2022-10-01T07:25:48.411Z,23.63
2022-10-01T07:28:20.385Z,23.84
2022-10-01T07:31:06.525Z,23.90
2022-10-01T07:33:33.775Z,24.00
2022-10-01T07:36:06.394Z,24.03
2022-10-01T07:38:33.765Z,23.91
2022-10-01T07:41:01.223Z,23.85
2022-10-01T07:43:28.869Z,24.18
2022-10-01T07:45:55.672Z,24.21
2022-10-01T07:48:22.600Z,24.36
2022-10-01T07:50:49.446Z,24.43
2022-10-01T07:53:17.019Z,24.13
2022-10-01T07:55:43.842Z,24.32
2022-10-01T07:58:12.186Z,24.47
2022-10-01T08:00:39.956Z,24.60
2022-10-01T08:03:06.997Z,24.70
2022-10-01T08:05:36.038Z,24.72
2022-10-01T08:08:06.455Z,24.77
2022-10-01T08:10:34.526Z,24.70
2022-10-01T08:13:05.671Z,24.97
2022-10-01T08:15:32.435Z,24.78
2022-10-01T08:18:02.164Z,25.03
2022-10-01T08:20:29.373Z,25.23
2022-10-01T08:23:05.958Z,25.50
2022-10-01T08:25:33.610Z,25.12
2022-10-01T08:28:00.905Z,24.91
2022-10-01T08:30:28.791Z,24.87
2022-10-01T08:33:04.244Z,25.12
2022-10-01T08:35:31.598Z,25.38
2022-10-01T08:38:02.792Z,25.52
2022-10-01T08:40:30.422Z,25.67
2022-10-01T08:43:04.621Z,25.98
2022-10-01T08:45:53.224Z,26.00
2022-10-01T08:48:38.452Z,25.46
2022-10-01T08:51:31.598Z,25.60
2022-10-01T08:54:20.199Z,25.67
2022-10-01T08:56:47.849Z,25.61
2022-10-01T08:59:40.605Z,25.53
2022-10-01T09:02:19.106Z,25.79
2022-10-01T09:04:48.484Z,26.08
2022-10-01T09:07:42.909Z,26.06
2022-10-01T09:10:28.599Z,26.04
2022-10-01T09:13:14.070Z,26.49
2022-10-01T09:15:54.538Z,26.59
2022-10-01T09:18:58.463Z,26.51
2022-10-01T09:21:55.787Z,26.02
2022-10-01T09:24:44.973Z,25.93
2022-10-01T09:27:23.504Z,25.75
2022-10-01T09:30:03.365Z,25.92
2022-10-01T09:32:44.150Z,26.37
2022-10-01T09:35:47.394Z,26.62
2022-10-01T09:38:18.957Z,26.70
2022-10-01T09:40:55.459Z,27.41
2022-10-01T09:43:34.152Z,27.23
2022-10-01T09:46:01.284Z,26.68
2022-10-01T09:48:43.394Z,26.45
2022-10-01T09:51:13.124Z,26.92
2022-10-01T09:54:13.137Z,26.80
2022-10-01T09:56:48.462Z,26.62
2022-10-01T09:59:24.316Z,26.48
2022-10-01T10:01:55.891Z,26.97
2022-10-01T10:04:23.596Z,26.78
2022-10-01T10:06:51.936Z,26.93
2022-10-01T10:09:24.473Z,26.51
2022-10-01T10:11:51.517Z,26.86
2022-10-01T10:14:22.173Z,27.15
2022-10-01T10:16:49.016Z,27.28
2022-10-01T10:19:24.264Z,26.96
2022-10-01T10:21:53.759Z,26.91
2022-10-01T10:24:32.833Z,27.28
2022-10-01T10:27:01.783Z,26.72
2022-10-01T10:29:36.301Z,26.47
2022-10-01T10:32:19.269Z,26.74
2022-10-01T10:34:46.704Z,26.94
2022-10-01T10:37:16.595Z,26.86
2022-10-01T10:39:48.683Z,26.93
2022-10-01T10:42:17.907Z,26.77
2022-10-01T10:44:49.028Z,26.95
2022-10-01T10:47:18.736Z,26.98
2022-10-01T10:49:49.650Z,26.11
2022-10-01T10:52:21.117Z,26.64
2022-10-01T10:54:49.640Z,26.95
2022-10-01T10:57:19.596Z,27.26
2022-10-01T10:59:55.588Z,27.22
2022-10-01T11:02:26.899Z,27.40
2022-10-01T11:04:55.014Z,27.03
2022-10-01T11:07:24.593Z,27.33
2022-10-01T11:10:00.246Z,26.71
2022-10-01T11:12:35.011Z,26.66
2022-10-01T11:15:04.497Z,26.95
2022-10-01T11:17:53.671Z,27.14
2022-10-01T11:20:23.495Z,26.55
2022-10-01T11:23:08.555Z,26.97
2022-10-01T11:26:08.377Z,26.69
2022-10-01T11:28:41.165Z,26.29
2022-10-01T11:31:45.308Z,26.76
2022-10-01T11:34:30.470Z,26.81
2022-10-01T11:37:20.514Z,26.77
2022-10-01T11:39:51.387Z,26.88
2022-10-01T11:42:26.619Z,26.73
2022-10-01T11:45:14.063Z,26.90
2022-10-01T11:47:47.310Z,26.60
2022-10-01T11:50:19.016Z,26.39
2022-10-01T11:53:09.789Z,26.64
2022-10-01T11:55:52.197Z,26.62
2022-10-01T11:58:58.996Z,26.81
2022-10-01T12:02:03.063Z,27.20
2022-10-01T12:04:42.231Z,27.88
2022-10-01T12:07:25.805Z,28.39
2022-10-01T12:09:55.903Z,28.53
2022-10-01T12:12:35.170Z,28.94
2022-10-01T12:15:09.862Z,27.85
2022-10-01T12:18:01.561Z,26.89
2022-10-01T12:20:38.305Z,26.85
2022-10-01T12:23:08.134Z,26.95
2022-10-01T12:25:43.910Z,27.14
2022-10-01T12:28:17.607Z,27.36
2022-10-01T12:31:04.155Z,27.65
2022-10-01T12:33:56.357Z,27.36
2022-10-01T12:36:35.337Z,27.03
2022-10-01T12:39:35.065Z,26.67
2022-10-01T12:42:04.821Z,26.91
2022-10-01T12:44:31.457Z,27.06
2022-10-01T12:47:23.613Z,27.21
2022-10-01T12:50:08.032Z,27.18
2022-10-01T12:53:08.449Z,26.76
2022-10-01T12:55:54.680Z,26.71
2022-10-01T12:58:36.665Z,26.64
2022-10-01T13:01:11.764Z,27.05
2022-10-01T13:04:03.392Z,27.56
2022-10-01T13:06:56.547Z,27.74
2022-10-01T13:09:28.850Z,28.14
2022-10-01T13:12:13.967Z,28.31
2022-10-01T13:14:42.021Z,28.52
2022-10-01T13:17:18.607Z,28.65
2022-10-01T13:19:52.469Z,28.74
2022-10-01T13:22:43.882Z,28.91
2022-10-01T13:26:00.347Z,28.54
2022-10-01T13:29:00.846Z,27.76
2022-10-01T13:31:52.685Z,27.95
2022-10-01T13:34:37.648Z,28.00
2022-10-01T13:37:17.765Z,28.26
2022-10-01T13:39:45.737Z,28.49
2022-10-01T13:42:25.615Z,28.79
2022-10-01T13:45:01.971Z,28.99
2022-10-01T13:47:29.028Z,29.14
2022-10-01T13:50:01.761Z,29.26
2022-10-01T13:52:29.480Z,29.25
2022-10-01T13:54:57.643Z,29.12
2022-10-01T13:57:35.068Z,29.04
2022-10-01T14:00:06.073Z,29.08
2022-10-01T14:02:37.189Z,29.14
2022-10-01T14:05:35.933Z,28.99
2022-10-01T14:08:14.926Z,29.01
2022-10-01T14:10:49.598Z,29.00
2022-10-01T14:13:21.466Z,29.05
2022-10-01T14:15:48.923Z,28.91
2022-10-01T14:18:21.031Z,28.88
2022-10-01T14:20:50.571Z,28.77
2022-10-01T14:23:25.375Z,28.65
2022-10-01T14:26:03.253Z,28.67
2022-10-01T14:28:51.195Z,28.62
2022-10-01T14:31:44.792Z,28.51
2022-10-01T14:34:28.557Z,28.42
2022-10-01T14:36:56.333Z,28.25
2022-10-01T14:39:29.979Z,28.07
2022-10-01T14:41:58.173Z,27.91
2022-10-01T14:44:38.928Z,27.64
2022-10-01T14:47:19.950Z,27.47
2022-10-01T14:49:47.572Z,27.42
2022-10-01T14:52:20.156Z,27.29
2022-10-01T14:55:11.851Z,27.01
2022-10-01T14:57:42.332Z,26.62
2022-10-01T15:00:15.874Z,26.30
2022-10-01T15:02:50.606Z,26.15
2022-10-01T15:05:27.543Z,25.90
2022-10-01T15:07:54.307Z,25.88
2022-10-01T15:10:25.045Z,25.95
2022-10-01T15:12:53.814Z,25.97
2022-10-01T15:15:31.297Z,25.92
2022-10-01T15:17:58.463Z,25.96
2022-10-01T15:20:25.548Z,26.00
2022-10-01T15:22:52.426Z,26.04
2022-10-01T15:25:25.777Z,25.99
2022-10-01T15:27:52.553Z,25.82
2022-10-01T15:30:22.828Z,25.77
2022-10-01T15:32:51.065Z,25.69
2022-10-01T15:35:23.026Z,25.65
2022-10-01T15:37:50.959Z,25.58
2022-10-01T15:40:44.228Z,25.44
2022-10-01T15:43:24.130Z,25.34
2022-10-01T15:46:11.045Z,25.26
2022-10-01T15:48:37.947Z,25.15
2022-10-01T15:51:28.304Z,25.10
2022-10-01T15:54:08.896Z,25.02
2022-10-01T15:56:35.977Z,24.84
2022-10-01T15:59:18.787Z,24.85
2022-10-01T16:01:45.687Z,24.84
2022-10-01T16:04:14.524Z,24.77
2022-10-01T16:06:46.095Z,24.73
2022-10-01T16:09:30.189Z,24.69
2022-10-01T16:12:03.917Z,24.57
2022-10-01T16:14:56.316Z,24.57
2022-10-01T16:17:30.445Z,24.48
2022-10-01T16:20:18.391Z,24.35
2022-10-01T16:22:45.279Z,24.14
2022-10-01T16:25:20.906Z,24.12
2022-10-01T16:27:50.153Z,23.98
2022-10-01T16:30:32.250Z,23.87
2022-10-01T16:33:01.148Z,23.78
2022-10-01T16:35:30.156Z,23.70
2022-10-01T16:37:58.220Z,23.74
2022-10-01T16:40:31.140Z,23.73
2022-10-01T16:42:59.694Z,23.75
2022-10-01T16:45:32.695Z,23.75
2022-10-01T16:48:00.484Z,23.68
2022-10-01T16:50:27.545Z,23.60
2022-10-01T16:52:55.826Z,23.60
2022-10-01T16:55:28.087Z,23.49
2022-10-01T16:57:54.987Z,23.46
2022-10-01T17:00:24.462Z,23.45
2022-10-01T17:02:51.794Z,23.40
2022-10-01T17:05:22.776Z,23.36
2022-10-01T17:07:49.844Z,23.42
2022-10-01T17:10:18.254Z,23.41
2022-10-01T17:12:45.816Z,23.38
2022-10-01T17:15:15.019Z,23.38
2022-10-01T17:17:41.999Z,23.33
2022-10-01T17:20:09.310Z,23.34
2022-10-01T17:22:36.247Z,23.29
2022-10-01T17:25:03.092Z,23.24
2022-10-01T17:27:29.843Z,23.25
2022-10-01T17:29:56.725Z,23.19
2022-10-01T17:32:23.718Z,23.13
2022-10-01T17:34:50.537Z,23.24
2022-10-01T17:37:17.321Z,23.19
2022-10-01T17:39:44.070Z,23.19
2022-10-01T17:42:11.325Z,23.22
2022-10-01T17:44:38.177Z,23.22
2022-10-01T17:47:04.905Z,23.23
2022-10-01T17:49:31.700Z,23.24
2022-10-01T17:51:58.552Z,23.27
2022-10-01T17:54:25.320Z,23.26
2022-10-01T17:56:53.399Z,23.25
2022-10-01T17:59:20.220Z,23.24
2022-10-01T18:01:47.168Z,23.21
2022-10-01T18:04:13.976Z,23.20
2022-10-01T18:06:41.231Z,23.16
2022-10-01T18:09:14.314Z,23.12
2022-10-01T18:11:41.202Z,23.08
2022-10-01T18:14:07.956Z,23.06
2022-10-01T18:16:35.449Z,23.07
2022-10-01T18:21:52.512Z,23.07
2022-10-01T18:24:19.400Z,23.11
2022-10-01T18:26:46.326Z,23.06
2022-10-01T18:29:24.763Z,23.06
2022-10-01T18:31:59.490Z,23.06
2022-10-01T18:34:32.470Z,22.99
2022-10-01T18:37:08.200Z,22.87
2022-10-01T18:39:49.590Z,22.92
2022-10-01T18:42:25.078Z,22.91
2022-10-01T18:45:03.420Z,22.92
2022-10-01T18:47:38.902Z,22.96
2022-10-01T18:50:33.096Z,22.79
2022-10-01T18:52:59.828Z,22.76
2022-10-01T18:55:54.148Z,22.59
2022-10-01T18:58:23.907Z,22.41
2022-10-01T19:01:29.425Z,22.56
2022-10-01T19:04:08.282Z,22.48
2022-10-01T19:06:47.530Z,22.26
2022-10-01T19:09:16.899Z,22.29
2022-10-01T19:11:55.713Z,22.57
2022-10-01T19:14:47.281Z,22.57
2022-10-01T19:17:23.134Z,22.37
2022-10-01T19:20:07.030Z,22.34
2022-10-01T19:23:01.411Z,22.38
2022-10-01T19:25:51.672Z,22.39
2022-10-01T19:28:53.872Z,22.37
2022-10-01T19:31:52.826Z,22.33
2022-10-01T19:34:32.473Z,22.27
2022-10-01T19:37:29.277Z,22.22
2022-10-01T19:40:05.975Z,22.32
2022-10-01T19:42:40.528Z,22.33
2022-10-01T19:45:13.395Z,22.31
2022-10-01T19:47:52.345Z,22.26
2022-10-01T19:50:24.349Z,22.17
2022-10-01T19:52:55.775Z,22.06
2022-10-01T19:55:24.444Z,21.80
2022-10-01T19:57:51.744Z,21.73
2022-10-01T20:00:20.721Z,21.74
2022-10-01T20:03:16.236Z,21.77
2022-10-01T20:05:57.708Z,21.73
2022-10-01T20:08:24.628Z,21.79
2022-10-01T20:10:59.920Z,21.87
2022-10-01T20:13:59.717Z,21.96
2022-10-01T20:16:29.070Z,21.86
2022-10-01T20:19:25.748Z,21.76
2022-10-01T20:22:06.123Z,21.65
2022-10-01T20:24:35.928Z,21.72
2022-10-01T20:27:07.794Z,21.52
2022-10-01T20:30:09.040Z,21.47
2022-10-01T20:32:53.280Z,21.25
2022-10-01T20:35:30.174Z,21.24
2022-10-01T20:38:15.114Z,21.27
2022-10-01T20:40:49.235Z,21.40
2022-10-01T20:43:22.243Z,21.31
2022-10-01T20:45:53.610Z,21.18
2022-10-01T20:48:25.673Z,21.23
2022-10-01T20:50:55.608Z,21.14
2022-10-01T20:53:28.831Z,21.17
2022-10-01T20:56:04.339Z,21.14
2022-10-01T20:58:35.561Z,21.01
2022-10-01T21:01:09.743Z,20.86
2022-10-01T21:03:43.385Z,20.96
2022-10-01T21:06:26.008Z,20.71
2022-10-01T21:09:18.749Z,20.60
2022-10-01T21:12:09.116Z,20.59
2022-10-01T21:14:46.953Z,20.19
2022-10-01T21:17:32.446Z,20.11
2022-10-01T21:20:23.772Z,20.31
2022-10-01T21:23:32.262Z,20.55
2022-10-01T21:26:07.189Z,20.59
2022-10-01T21:28:53.621Z,20.57
2022-10-01T21:31:39.267Z,20.81
2022-10-01T21:34:18.202Z,20.83
2022-10-01T21:37:38.818Z,20.90
2022-10-01T21:40:39.465Z,21.11
2022-10-01T21:43:25.652Z,21.18
2022-10-01T21:46:09.376Z,21.31
2022-10-01T21:49:00.313Z,21.41
2022-10-01T21:51:39.921Z,21.52
2022-10-01T21:54:27.045Z,21.60
2022-10-01T21:56:59.868Z,21.58
2022-10-01T22:00:04.305Z,21.25
2022-10-01T22:03:10.723Z,20.87
2022-10-01T22:05:54.992Z,20.76
2022-10-01T22:08:36.975Z,20.54
2022-10-01T22:11:12.248Z,20.10
2022-10-01T22:13:48.202Z,20.05
2022-10-01T22:16:16.346Z,20.35
2022-10-01T22:19:07.195Z,20.38
2022-10-01T22:21:45.488Z,20.31
2022-10-01T22:24:17.559Z,20.34
2022-10-01T22:26:52.786Z,20.44
2022-10-01T22:29:25.674Z,20.45
2022-10-01T22:31:59.218Z,20.36
2022-10-01T22:34:32.349Z,20.48
2022-10-01T22:37:05.866Z,20.22
2022-10-01T22:39:48.782Z,20.25
2022-10-01T22:42:21.945Z,20.28
2022-10-01T22:44:48.934Z,20.19
2022-10-01T22:47:37.571Z,20.18
2022-10-01T22:50:21.404Z,20.07
2022-10-01T22:53:01.749Z,20.17
2022-10-01T22:55:52.770Z,19.83
2022-10-01T22:59:07.460Z,19.72
2022-10-01T23:01:55.852Z,19.27
2022-10-01T23:04:40.564Z,19.49
2022-10-01T23:07:29.214Z,19.56
2022-10-01T23:10:03.633Z,19.66
2022-10-01T23:13:09.173Z,19.76
2022-10-01T23:16:01.290Z,19.74
2022-10-01T23:18:57.351Z,19.76
2022-10-01T23:21:50.370Z,19.79
2022-10-01T23:24:48.357Z,19.96
2022-10-01T23:27:34.058Z,19.99
2022-10-01T23:30:17.541Z,19.99
2022-10-01T23:33:03.871Z,20.02
2022-10-01T23:35:50.494Z,20.07
2022-10-01T23:38:32.618Z,20.11
2022-10-01T23:41:08.438Z,20.06
2022-10-01T23:43:45.143Z,19.43
2022-10-01T23:46:25.096Z,19.44
2022-10-01T23:48:54.578Z,19.41
2022-10-01T23:51:48.755Z,19.59
2022-10-01T23:54:38.590Z,19.70
2022-10-01T23:57:05.487Z,19.59
2022-10-01T23:59:52.901Z,19.45
